createdAt,value
2022-10-22T00:00:54.140Z,11.00
2022-10-22T00:03:20.446Z,14.65
2022-10-22T00:05:47.726Z,14.57
2022-10-22T00:08:14.151Z,10.75
2022-10-22T00:10:41.279Z,11.73
2022-10-22T00:13:07.759Z,9.25
2022-10-22T00:15:34.160Z,9.73
2022-10-22T00:18:00.475Z,12.63
2022-10-22T00:20:26.849Z,11.05
2022-10-22T00:22:53.153Z,11.48
2022-10-22T00:25:19.605Z,12.02
2022-10-22T00:27:45.955Z,11.43
2022-10-22T00:30:12.459Z,10.23
2022-10-22T00:32:39.442Z,11.60
2022-10-22T00:35:07.398Z,13.23
2022-10-22T00:37:33.835Z,10.75
2022-10-22T00:40:00.178Z,9.98
2022-10-22T00:42:28.029Z,12.05
2022-10-22T00:45:09.574Z,10.57
2022-10-22T00:47:59.346Z,11.02
2022-10-22T00:50:43.543Z,10.40
2022-10-22T00:53:16.040Z,12.05
2022-10-22T00:55:45.116Z,9.57
2022-10-22T00:58:13.106Z,10.63
2022-10-22T01:00:39.961Z,12.32
2022-10-22T01:03:06.766Z,11.38
2022-10-22T01:05:42.404Z,11.52
2022-10-22T01:08:17.071Z,9.93
2022-10-22T01:11:02.247Z,11.43
2022-10-22T01:13:41.871Z,10.88
2022-10-22T01:16:24.463Z,9.43
2022-10-22T01:19:25.880Z,14.18
2022-10-22T01:22:08.311Z,11.65
2022-10-22T01:24:47.389Z,12.75
2022-10-22T01:27:28.914Z,14.10
2022-10-22T01:30:02.995Z,12.73
2022-10-22T01:32:33.061Z,10.57
2022-10-22T01:35:07.175Z,11.80
2022-10-22T01:37:38.681Z,13.13
2022-10-22T01:40:07.382Z,14.98
2022-10-22T01:42:33.733Z,14.15
2022-10-22T01:45:00.121Z,11.07
2022-10-22T01:47:48.498Z,13.77
2022-10-22T01:50:23.565Z,16.20
2022-10-22T01:53:11.162Z,12.85
2022-10-22T01:55:52.823Z,13.02
2022-10-22T01:58:37.880Z,12.82
2022-10-22T02:01:16.082Z,11.00
2022-10-22T02:03:50.296Z,10.32
2022-10-22T02:06:20.519Z,9.90
2022-10-22T02:08:49.278Z,14.15
2022-10-22T02:11:15.843Z,13.60
2022-10-22T02:13:48.270Z,9.40
2022-10-22T02:16:31.964Z,13.20
2022-10-22T02:19:02.612Z,11.80
2022-10-22T02:21:29.630Z,11.52
2022-10-22T02:23:56.329Z,11.52
2022-10-22T02:26:31.986Z,10.40
2022-10-22T02:29:14.015Z,10.65
2022-10-22T02:31:43.189Z,13.30
2022-10-22T02:34:15.733Z,11.80
2022-10-22T02:36:46.771Z,12.75
2022-10-22T02:39:19.011Z,12.00
2022-10-22T02:41:45.359Z,14.10
2022-10-22T02:44:11.926Z,10.90
2022-10-22T02:46:40.278Z,14.07
2022-10-22T02:49:06.581Z,13.40
2022-10-22T02:51:32.956Z,14.45
2022-10-22T02:53:59.274Z,11.63
2022-10-22T02:56:25.665Z,12.48
2022-10-22T02:58:51.978Z,12.10
2022-10-22T03:01:18.326Z,12.13
2022-10-22T03:03:44.672Z,12.43
2022-10-22T03:06:11.100Z,12.27
2022-10-22T03:08:37.444Z,10.95
2022-10-22T03:11:03.942Z,13.65
2022-10-22T03:13:30.275Z,11.80
2022-10-22T03:15:56.623Z,12.25
2022-10-22T03:18:22.967Z,11.50
2022-10-22T03:20:49.403Z,12.55
2022-10-22T03:23:19.557Z,12.15
2022-10-22T03:25:48.148Z,11.88
2022-10-22T03:28:17.231Z,15.77
2022-10-22T03:30:43.546Z,15.57
2022-10-22T03:33:09.881Z,10.65
2022-10-22T03:35:42.491Z,11.30
2022-10-22T03:38:08.879Z,12.68
2022-10-22T03:40:35.263Z,14.57
2022-10-22T03:43:01.682Z,11.90
2022-10-22T03:45:28.082Z,12.80
2022-10-22T03:47:54.586Z,12.38
2022-10-22T03:50:20.911Z,13.50
2022-10-22T03:52:47.267Z,14.43
2022-10-22T03:55:13.617Z,12.52
2022-10-22T03:57:40.269Z,12.68
2022-10-22T04:00:07.476Z,20.10
2022-10-22T04:02:33.807Z,14.23
2022-10-22T04:05:00.210Z,13.48
2022-10-22T04:07:26.696Z,12.73
2022-10-22T04:09:53.080Z,17.30
2022-10-22T04:12:19.452Z,17.25
2022-10-22T04:14:45.768Z,17.75
2022-10-22T04:17:12.092Z,13.40
2022-10-22T04:19:38.466Z,13.80
2022-10-22T04:22:04.806Z,13.52
2022-10-22T04:24:32.068Z,14.70
2022-10-22T04:26:58.630Z,15.52
2022-10-22T04:29:25.448Z,17.52
2022-10-22T04:31:51.985Z,12.98
2022-10-22T04:34:18.367Z,14.52
2022-10-22T04:36:44.727Z,17.08
2022-10-22T04:39:11.046Z,15.48
2022-10-22T04:41:39.198Z,16.88
2022-10-22T04:44:06.315Z,18.67
2022-10-22T04:46:34.840Z,15.45
2022-10-22T04:49:01.777Z,16.60
2022-10-22T04:51:28.123Z,17.67
2022-10-22T04:53:54.729Z,22.73
2022-10-22T04:56:27.075Z,19.70
2022-10-22T04:59:02.038Z,25.73
2022-10-22T05:01:32.072Z,22.45
2022-10-22T05:04:00.265Z,21.60
2022-10-22T05:06:28.646Z,24.98
2022-10-22T05:09:01.063Z,23.20
2022-10-22T05:11:33.486Z,21.95
2022-10-22T05:14:01.267Z,24.38
2022-10-22T05:16:29.492Z,22.73
2022-10-22T05:18:57.446Z,29.50
2022-10-22T05:21:23.801Z,31.13
2022-10-22T05:23:50.774Z,26.52
2022-10-22T05:26:21.615Z,25.98
2022-10-22T05:28:49.471Z,28.92
2022-10-22T05:31:17.249Z,32.50
2022-10-22T05:33:43.944Z,32.13
2022-10-22T05:36:16.561Z,31.55
2022-10-22T05:38:42.891Z,28.75
2022-10-22T05:41:12.172Z,29.45
2022-10-22T05:43:38.536Z,28.58
2022-10-22T05:46:21.246Z,30.15
2022-10-22T05:48:50.315Z,29.40
2022-10-22T05:51:16.903Z,31.98
2022-10-22T05:53:43.985Z,32.08
2022-10-22T05:56:15.707Z,28.73
2022-10-22T05:58:43.225Z,29.52
2022-10-22T06:01:18.121Z,33.30
2022-10-22T06:06:20.120Z,34.03
2022-10-22T06:08:48.862Z,32.90
2022-10-22T06:11:16.468Z,31.80
2022-10-22T06:13:42.760Z,28.60
2022-10-22T06:16:09.054Z,29.45
2022-10-22T06:18:35.389Z,28.63
2022-10-22T06:21:12.846Z,31.77
2022-10-22T06:23:39.965Z,29.58
2022-10-22T06:26:07.507Z,26.95
2022-10-22T06:28:34.118Z,27.80
2022-10-22T06:31:01.399Z,30.50
2022-10-22T06:33:29.561Z,35.58
2022-10-22T06:35:55.860Z,30.10
2022-10-22T06:38:22.165Z,28.10
2022-10-22T06:40:48.481Z,30.80
2022-10-22T06:43:14.879Z,31.73
2022-10-22T06:45:41.319Z,31.70
2022-10-22T06:48:07.691Z,29.25
2022-10-22T06:50:34.887Z,29.48
2022-10-22T06:53:01.327Z,27.67
2022-10-22T06:55:27.770Z,28.63
2022-10-22T06:57:55.532Z,29.23
2022-10-22T07:00:21.987Z,23.27
2022-10-22T07:02:54.323Z,27.27
2022-10-22T07:05:21.661Z,24.08
2022-10-22T07:07:48.059Z,25.55
2022-10-22T07:10:14.526Z,27.98
2022-10-22T07:12:40.950Z,27.83
2022-10-22T07:15:07.873Z,23.60
2022-10-22T07:17:34.241Z,22.88
2022-10-22T07:20:01.852Z,25.60
2022-10-22T07:22:28.178Z,20.52
2022-10-22T07:24:54.480Z,21.73
2022-10-22T07:27:20.808Z,24.30
2022-10-22T07:29:47.255Z,25.15
2022-10-22T07:32:13.891Z,21.10
2022-10-22T07:34:43.068Z,22.02
2022-10-22T07:37:10.233Z,20.35
2022-10-22T07:39:36.609Z,18.98
2022-10-22T07:42:02.986Z,22.27
2022-10-22T07:44:29.285Z,19.73
2022-10-22T07:46:55.608Z,20.92
2022-10-22T07:49:21.956Z,24.35
2022-10-22T07:51:48.259Z,21.42
2022-10-22T07:54:14.579Z,17.45
2022-10-22T07:56:40.866Z,16.33
2022-10-22T07:59:07.173Z,17.35
2022-10-22T08:01:33.549Z,23.55
2022-10-22T08:03:59.902Z,13.98
2022-10-22T08:06:26.230Z,14.55
2022-10-22T08:08:52.579Z,14.82
2022-10-22T08:11:18.957Z,13.35
2022-10-22T08:13:45.924Z,17.67
2022-10-22T08:16:12.615Z,15.35
2022-10-22T08:18:38.955Z,11.10
2022-10-22T08:21:05.446Z,9.77
2022-10-22T08:23:31.875Z,13.13
2022-10-22T08:25:58.183Z,11.52
2022-10-22T08:28:24.991Z,10.60
2022-10-22T08:30:51.526Z,9.50
2022-10-22T08:33:17.892Z,9.38
2022-10-22T08:35:48.622Z,11.43
2022-10-22T08:38:15.067Z,11.30
2022-10-22T08:40:42.588Z,9.00
2022-10-22T08:44:06.557Z,9.43
2022-10-22T08:47:03.680Z,10.20
2022-10-22T08:49:37.156Z,8.50
2022-10-22T08:52:16.521Z,13.73
2022-10-22T08:54:56.632Z,7.55
2022-10-22T08:58:20.605Z,9.07
2022-10-22T09:00:52.270Z,9.85
2022-10-22T09:03:18.529Z,11.95
2022-10-22T09:06:32.529Z,6.68
2022-10-22T09:09:01.179Z,12.52
2022-10-22T09:11:31.907Z,11.00
2022-10-22T09:13:59.730Z,10.10
2022-10-22T09:16:53.777Z,10.35
2022-10-22T09:19:39.940Z,7.47
2022-10-22T09:22:17.747Z,6.65
2022-10-22T09:24:52.435Z,10.52
2022-10-22T09:27:27.867Z,5.50
2022-10-22T09:29:54.218Z,7.30
2022-10-22T09:32:20.586Z,7.40
2022-10-22T09:34:49.016Z,9.02
2022-10-22T09:37:24.701Z,10.45
2022-10-22T09:39:52.305Z,8.77
2022-10-22T09:42:20.541Z,10.85
2022-10-22T09:44:53.858Z,7.95
2022-10-22T09:47:42.964Z,12.32
2022-10-22T09:50:21.209Z,12.52
2022-10-22T09:53:20.299Z,10.10
2022-10-22T09:55:53.827Z,16.25
2022-10-22T09:58:20.630Z,9.60
2022-10-22T10:00:52.219Z,11.30
2022-10-22T10:03:21.709Z,10.23
2022-10-22T10:05:54.090Z,11.20
2022-10-22T10:08:20.799Z,7.00
2022-10-22T10:10:52.173Z,8.77
2022-10-22T10:13:57.067Z,8.70
2022-10-22T10:17:04.821Z,10.02
2022-10-22T10:19:33.908Z,9.20
2022-10-22T10:22:21.718Z,13.60
2022-10-22T10:24:55.917Z,6.43
2022-10-22T10:27:28.995Z,10.38
2022-10-22T10:30:17.105Z,9.27
2022-10-22T10:33:12.330Z,8.20
2022-10-22T10:36:09.716Z,9.13
2022-10-22T10:38:44.812Z,5.10
2022-10-22T10:41:16.298Z,5.93
2022-10-22T10:44:11.957Z,11.20
2022-10-22T10:46:53.364Z,11.02
2022-10-22T10:49:24.344Z,8.07
2022-10-22T10:52:01.461Z,9.68
2022-10-22T10:54:49.257Z,5.90
2022-10-22T10:57:46.634Z,7.45
2022-10-22T11:00:18.791Z,9.18
2022-10-22T11:03:03.229Z,9.68
2022-10-22T11:05:43.722Z,8.00
2022-10-22T11:08:24.671Z,7.00
2022-10-22T11:11:05.266Z,4.68
2022-10-22T11:13:36.741Z,11.07
2022-10-22T11:16:20.022Z,6.85
2022-10-22T11:18:55.256Z,10.73
2022-10-22T11:21:27.004Z,14.48
2022-10-22T11:24:20.530Z,6.22
2022-10-22T11:27:10.160Z,9.32
2022-10-22T11:29:52.147Z,9.48
2022-10-22T11:32:20.849Z,9.02
2022-10-22T11:34:53.442Z,6.95
2022-10-22T11:37:20.899Z,10.30
2022-10-22T11:40:03.040Z,13.00
2022-10-22T11:42:37.137Z,5.43
2022-10-22T11:45:15.409Z,9.95
2022-10-22T11:47:58.296Z,8.43
2022-10-22T11:50:46.300Z,9.00
2022-10-22T11:53:12.666Z,12.88
2022-10-22T11:55:44.997Z,9.93
2022-10-22T11:58:28.088Z,11.25
2022-10-22T12:00:56.547Z,11.63
2022-10-22T12:03:31.914Z,9.40
2022-10-22T12:06:07.431Z,9.35
2022-10-22T12:08:34.487Z,6.47
2022-10-22T12:11:21.172Z,9.88
2022-10-22T12:14:03.703Z,8.52
2022-10-22T12:16:55.149Z,8.40
2022-10-22T12:19:22.268Z,5.30
2022-10-22T12:22:08.427Z,6.90
2022-10-22T12:24:37.704Z,10.05
2022-10-22T12:27:04.457Z,8.00
2022-10-22T12:29:32.547Z,7.40
2022-10-22T12:32:04.010Z,8.05
2022-10-22T12:34:30.395Z,10.38
2022-10-22T12:36:56.698Z,7.57
2022-10-22T12:39:26.807Z,8.70
2022-10-22T12:41:54.325Z,5.95
2022-10-22T12:44:20.765Z,8.48
2022-10-22T12:46:51.747Z,6.20
2022-10-22T12:49:23.542Z,5.13
2022-10-22T12:51:49.937Z,10.02
2022-10-22T12:54:30.930Z,11.38
2022-10-22T12:56:57.968Z,8.18
2022-10-22T12:59:27.726Z,8.82
2022-10-22T13:01:54.848Z,12.82
2022-10-22T13:04:26.945Z,6.43
2022-10-22T13:07:06.588Z,7.28
2022-10-22T13:09:39.717Z,12.13
2022-10-22T13:12:07.852Z,3.90
2022-10-22T13:14:36.132Z,4.82
2022-10-22T13:17:28.648Z,8.27
2022-10-22T13:19:54.907Z,7.95
2022-10-22T13:22:26.452Z,8.00
2022-10-22T13:24:53.389Z,5.28
2022-10-22T13:27:20.227Z,6.00
2022-10-22T13:29:46.663Z,5.90
2022-10-22T13:32:29.497Z,5.50
2022-10-22T13:34:57.876Z,13.50
2022-10-22T13:37:24.746Z,6.63
2022-10-22T13:39:51.050Z,7.90
2022-10-22T13:42:17.374Z,6.47
2022-10-22T13:44:43.704Z,8.27
2022-10-22T13:47:29.505Z,5.50
2022-10-22T13:49:59.951Z,8.38
2022-10-22T13:52:39.944Z,5.82
2022-10-22T13:55:26.684Z,4.50
2022-10-22T13:58:14.949Z,5.53
2022-10-22T14:00:44.172Z,5.72
2022-10-22T14:03:13.550Z,7.03
2022-10-22T14:05:39.940Z,9.38
2022-10-22T14:08:12.479Z,9.95
2022-10-22T14:10:38.802Z,5.72
2022-10-22T14:13:10.923Z,7.72
2022-10-22T14:15:37.928Z,8.65
2022-10-22T14:18:06.125Z,8.05
2022-10-22T14:20:36.084Z,4.97
2022-10-22T14:23:28.540Z,6.32
2022-10-22T14:25:55.603Z,7.93
2022-10-22T14:28:21.957Z,6.30
2022-10-22T14:30:48.468Z,7.22
2022-10-22T14:33:19.060Z,9.40
2022-10-22T14:35:45.756Z,9.88
2022-10-22T14:38:12.079Z,6.05
2022-10-22T14:40:39.902Z,5.88
2022-10-22T14:43:06.243Z,8.38
2022-10-22T14:45:32.593Z,8.75
2022-10-22T14:47:58.922Z,5.32
2022-10-22T14:50:25.315Z,6.22
2022-10-22T14:52:51.929Z,6.50
2022-10-22T14:55:19.461Z,4.47
2022-10-22T14:57:46.358Z,5.13
2022-10-22T15:00:16.204Z,7.53
2022-10-22T15:02:43.275Z,7.38
2022-10-22T15:05:10.038Z,7.13
2022-10-22T15:07:36.611Z,6.20
2022-10-22T15:10:04.982Z,5.53
2022-10-22T15:12:31.358Z,4.82
2022-10-22T15:14:57.676Z,5.00
2022-10-22T15:17:24.110Z,5.68
2022-10-22T15:19:50.684Z,4.32
2022-10-22T15:22:16.987Z,8.02
2022-10-22T15:24:43.335Z,6.60
2022-10-22T15:27:09.777Z,9.23
2022-10-22T15:29:36.198Z,5.93
2022-10-22T15:32:02.575Z,8.82
2022-10-22T15:34:39.312Z,6.30
2022-10-22T15:37:08.925Z,4.70
2022-10-22T15:39:35.810Z,6.35
2022-10-22T15:42:02.199Z,8.13
2022-10-22T15:44:30.789Z,4.13
2022-10-22T15:46:57.761Z,4.43
2022-10-22T15:49:25.698Z,7.57
2022-10-22T15:51:52.469Z,5.68
2022-10-22T15:54:24.674Z,23.80
2022-10-22T15:56:51.596Z,10.20
2022-10-22T15:59:18.322Z,13.95
2022-10-22T16:01:45.231Z,16.00
2022-10-22T16:04:11.591Z,26.50
2022-10-22T16:06:41.326Z,15.55
2022-10-22T16:09:13.061Z,15.57
2022-10-22T16:11:39.848Z,8.60
2022-10-22T16:14:06.667Z,16.52
2022-10-22T16:16:36.003Z,13.82
2022-10-22T16:19:02.591Z,15.43
2022-10-22T16:21:28.954Z,8.27
2022-10-22T16:23:55.270Z,8.70
2022-10-22T16:26:21.585Z,11.10
2022-10-22T16:28:48.468Z,9.40
2022-10-22T16:31:17.680Z,8.70
2022-10-22T16:33:47.777Z,10.00
2022-10-22T16:36:18.945Z,8.77
2022-10-22T16:38:46.616Z,9.50
2022-10-22T16:41:18.729Z,10.05
2022-10-22T16:43:47.147Z,11.32
2022-10-22T16:46:14.690Z,8.98
2022-10-22T16:48:45.716Z,9.45
2022-10-22T16:51:14.019Z,10.38
2022-10-22T16:53:40.313Z,4.97
2022-10-22T16:56:14.332Z,11.50
2022-10-22T16:58:46.416Z,10.98
2022-10-22T17:01:15.927Z,7.93
2022-10-22T17:03:44.587Z,9.73
2022-10-22T17:06:11.033Z,8.93
2022-10-22T17:08:38.727Z,6.55
2022-10-22T17:11:09.779Z,4.68
2022-10-22T17:13:36.443Z,7.82
2022-10-22T17:16:04.888Z,5.35
2022-10-22T17:18:31.958Z,8.57
2022-10-22T17:20:58.358Z,5.57
2022-10-22T17:23:27.782Z,6.13
2022-10-22T17:25:59.300Z,7.15
2022-10-22T17:28:26.905Z,9.68
2022-10-22T17:31:08.007Z,8.05
2022-10-22T17:33:36.561Z,8.15
2022-10-22T17:36:06.974Z,6.18
2022-10-22T17:38:33.319Z,4.93
2022-10-22T17:41:04.039Z,6.60
2022-10-22T17:43:33.306Z,7.28
2022-10-22T17:46:11.191Z,15.77
2022-10-22T17:48:37.617Z,10.77
2022-10-22T17:51:08.524Z,8.13
2022-10-22T17:53:35.489Z,6.57
2022-10-22T17:56:03.867Z,6.95
2022-10-22T17:58:30.455Z,6.93
2022-10-22T18:00:58.031Z,7.78
2022-10-22T18:03:24.647Z,9.32
2022-10-22T18:05:50.943Z,7.65
2022-10-22T18:08:17.266Z,9.63
2022-10-22T18:10:43.565Z,6.53
2022-10-22T18:13:09.895Z,7.38
2022-10-22T18:15:36.295Z,9.23
2022-10-22T18:18:04.106Z,17.70
2022-10-22T18:20:30.981Z,11.38
2022-10-22T18:22:57.292Z,7.53
2022-10-22T18:25:23.650Z,7.88
2022-10-22T18:27:50.023Z,13.65
2022-10-22T18:30:16.429Z,12.70
2022-10-22T18:32:42.726Z,12.77
2022-10-22T18:35:09.191Z,11.60
2022-10-22T18:37:35.498Z,11.48
2022-10-22T18:40:03.076Z,14.50
2022-10-22T18:42:32.752Z,19.08
2022-10-22T18:45:00.863Z,23.48
2022-10-22T18:47:27.168Z,8.50
2022-10-22T18:49:53.496Z,9.65
2022-10-22T18:52:19.805Z,11.90
2022-10-22T18:54:46.165Z,9.98
2022-10-22T18:57:12.554Z,9.98
2022-10-22T18:59:38.864Z,8.95
2022-10-22T19:02:05.313Z,15.35
2022-10-22T19:04:31.760Z,8.68
2022-10-22T19:06:58.442Z,15.70
2022-10-22T19:09:25.883Z,15.75
2022-10-22T19:11:52.263Z,12.52
2022-10-22T19:14:18.598Z,11.07
2022-10-22T19:16:45.220Z,15.15
2022-10-22T19:19:16.623Z,16.88
2022-10-22T19:21:42.967Z,12.70
2022-10-22T19:24:10.915Z,16.67
2022-10-22T19:26:37.450Z,15.20
2022-10-22T19:29:04.280Z,20.65
2022-10-22T19:31:31.417Z,17.30
2022-10-22T19:33:59.932Z,16.02
2022-10-22T19:36:27.365Z,17.17
2022-10-22T19:38:54.119Z,14.23
2022-10-22T19:41:22.559Z,13.32
2022-10-22T19:43:51.594Z,12.60
2022-10-22T19:46:19.366Z,15.15
2022-10-22T19:51:20.105Z,13.77
2022-10-22T19:53:46.797Z,16.05
2022-10-22T19:56:17.059Z,14.82
2022-10-22T19:58:43.929Z,16.52
2022-10-22T20:01:12.119Z,17.40
2022-10-22T20:03:41.673Z,18.35
2022-10-22T20:06:10.419Z,17.90
2022-10-22T20:08:37.770Z,14.15
2022-10-22T20:11:06.410Z,12.85
2022-10-22T20:13:33.647Z,22.27
2022-10-22T20:15:59.970Z,32.08
2022-10-22T20:18:26.656Z,21.88
2022-10-22T20:20:53.065Z,19.58
2022-10-22T20:23:19.484Z,21.58
2022-10-22T20:25:47.136Z,20.42
2022-10-22T20:28:14.430Z,17.98
2022-10-22T20:30:42.494Z,12.40
2022-10-22T20:33:08.960Z,25.38
2022-10-22T20:35:36.693Z,17.67
2022-10-22T20:38:04.665Z,25.63
2022-10-22T20:40:31.937Z,17.73
2022-10-22T20:43:01.806Z,16.17
2022-10-22T20:45:28.749Z,17.08
2022-10-22T20:48:02.629Z,14.82
2022-10-22T20:50:30.369Z,17.42
2022-10-22T20:52:56.761Z,13.50
2022-10-22T20:55:23.143Z,17.50
2022-10-22T20:57:49.634Z,16.40
2022-10-22T21:00:16.376Z,17.60
2022-10-22T21:02:42.722Z,14.57
2022-10-22T21:05:09.231Z,14.10
2022-10-22T21:07:35.531Z,11.88
2022-10-22T21:10:01.955Z,15.70
2022-10-22T21:12:28.262Z,11.93
2022-10-22T21:14:54.566Z,13.23
2022-10-22T21:17:20.875Z,13.35
2022-10-22T21:19:47.165Z,18.50
2022-10-22T21:22:13.490Z,15.07
2022-10-22T21:24:39.805Z,14.75
2022-10-22T21:27:06.118Z,15.93
2022-10-22T21:29:32.496Z,16.20
2022-10-22T21:31:58.836Z,11.75
2022-10-22T21:34:25.475Z,16.55
2022-10-22T21:36:51.811Z,12.15
2022-10-22T21:39:18.122Z,17.15
2022-10-22T21:41:44.466Z,13.98
2022-10-22T21:44:10.950Z,17.52
2022-10-22T21:46:37.292Z,14.07
2022-10-22T21:49:04.216Z,10.73
2022-10-22T21:51:32.971Z,24.80
2022-10-22T21:53:59.548Z,15.48
2022-10-22T21:56:28.754Z,12.70
2022-10-22T21:58:55.851Z,13.05
2022-10-22T22:01:22.567Z,15.88
2022-10-22T22:03:49.816Z,13.50
2022-10-22T22:06:21.188Z,15.40
2022-10-22T22:08:48.717Z,12.02
2022-10-22T22:11:20.959Z,12.82
2022-10-22T22:13:47.689Z,15.63
2022-10-22T22:16:17.872Z,14.68
2022-10-22T22:18:44.232Z,15.10
2022-10-22T22:21:17.873Z,15.75
2022-10-22T22:23:46.552Z,14.35
2022-10-22T22:26:14.366Z,11.73
2022-10-22T22:28:40.702Z,11.93
2022-10-22T22:31:15.279Z,11.65
2022-10-22T22:33:41.938Z,13.35
2022-10-22T22:36:08.527Z,14.05
2022-10-22T22:38:34.913Z,12.43
2022-10-22T22:41:02.077Z,17.52
2022-10-22T22:43:28.459Z,12.88
2022-10-22T22:46:06.139Z,14.98
2022-10-22T22:48:33.513Z,13.05
2022-10-22T22:51:02.375Z,13.38
2022-10-22T22:53:29.078Z,12.82
2022-10-22T22:56:15.770Z,10.45
2022-10-22T22:58:42.824Z,15.00
2022-10-22T23:01:22.592Z,13.77
2022-10-22T23:03:54.919Z,14.82
2022-10-22T23:06:21.585Z,12.10
2022-10-22T23:08:49.865Z,11.93
2022-10-22T23:11:16.567Z,15.05
2022-10-22T23:13:43.377Z,12.52
2022-10-22T23:16:17.756Z,16.10
2022-10-22T23:18:45.688Z,12.10
2022-10-22T23:21:27.572Z,14.98
2022-10-22T23:23:56.977Z,13.63
2022-10-22T23:26:35.442Z,12.65
2022-10-22T23:29:17.587Z,15.23
2022-10-22T23:31:44.619Z,13.02
2022-10-22T23:34:14.368Z,12.18
2022-10-22T23:36:40.775Z,15.85
2022-10-22T23:39:10.055Z,15.65
2022-10-22T23:41:37.325Z,15.50
2022-10-22T23:44:04.864Z,14.63
2022-10-22T23:46:31.190Z,13.43
2022-10-22T23:48:57.514Z,15.15
2022-10-22T23:51:23.884Z,11.27
2022-10-22T23:53:56.328Z,15.25
2022-10-22T23:56:22.707Z,16.73
2022-10-22T23:58:51.182Z,12.60
